Time;durP1;ratioP1;P1;durP2;ratioP2;P2;SDS_P1;SDS_P2;PMS_P1;PMS_P2;Temp;Humidity;BMP_temperature;BMP_pressure;BME280_temperature;BME280_humidity;BME280_pressure;Samples;Min_cycle;Max_cycle;Signal;HPM_P1;HPM_P2
2022/06/02 00:03:32;;;;;;;;;;;17.10;60.70;;;;;;20943576;28;20026;-73
2022/06/02 00:13:44;;;;;;;;;;;17.00;60.70;;;;;;20971916;28;20015;-74
2022/06/02 00:23:53;;;;;;;;;;;17.00;60.70;;;;;;20967269;28;19921;-74
2022/06/02 00:34:02;;;;;;;;;;;17.00;60.70;;;;;;20975253;28;19913;-73
2022/06/02 00:44:12;;;;;;;;;;;17.00;60.70;;;;;;20951127;28;20290;-74
2022/06/02 01:04:38;;;;;;;;;;;17.00;60.70;;;;;;20965187;28;20024;-73
2022/06/02 01:14:45;;;;;;;;;;;17.00;60.70;;;;;;20977869;28;20005;-74
2022/06/02 01:25:04;;;;;;;;;;;17.00;60.70;;;;;;20967198;28;19920;-73
2022/06/02 01:35:25;;;;;;;;;;;16.90;60.70;;;;;;20961083;28;19913;-73
2022/06/02 01:45:33;;;;;;;;;;;17.00;60.70;;;;;;20965396;28;19923;-73
2022/06/02 01:55:36;;;;;;;;;;;16.90;60.60;;;;;;20953856;28;20393;-74
2022/06/02 02:05:55;;;;;;;;;;;16.90;60.60;;;;;;20957467;28;20285;-74
2022/06/02 02:16:04;;;;;;;;;;;16.90;60.60;;;;;;20955893;28;20263;-74
2022/06/02 02:26:15;;;;;;;;;;;16.90;60.70;;;;;;20954738;28;20004;-74
2022/06/02 02:36:32;;;;;;;;;;;16.90;60.80;;;;;;20942456;28;19919;-73
2022/06/02 02:46:34;;;;;;;;;;;16.90;60.80;;;;;;20957054;28;19920;-74
2022/06/02 02:56:43;;;;;;;;;;;16.90;60.80;;;;;;20953764;28;19916;-74
2022/06/02 03:06:43;;;;;;;;;;;16.90;60.90;;;;;;20948983;28;19960;-74
2022/06/02 03:16:44;;;;;;;;;;;16.80;60.90;;;;;;20953573;28;20276;-73
2022/06/02 03:27:01;;;;;;;;;;;16.80;60.90;;;;;;20944695;28;19928;-73
2022/06/02 03:37:09;;;;;;;;;;;16.80;60.90;;;;;;20964898;28;20370;-74
2022/06/02 03:47:28;;;;;;;;;;;16.90;61.00;;;;;;20965957;28;19917;-74
2022/06/02 03:57:35;;;;;;;;;;;16.80;61.00;;;;;;20976323;28;19920;-74
2022/06/02 04:07:37;;;;;;;;;;;16.80;61.00;;;;;;20962236;28;19917;-74
2022/06/02 04:17:47;;;;;;;;;;;16.80;61.10;;;;;;20964602;28;20148;-76
2022/06/02 04:27:47;;;;;;;;;;;16.80;61.10;;;;;;20970516;28;19959;-85
2022/06/02 04:38:07;;;;;;;;;;;16.80;61.20;;;;;;20971008;28;19943;-80
2022/06/02 04:48:26;;;;;;;;;;;16.80;61.20;;;;;;20971998;28;19966;-85
2022/06/02 04:58:29;;;;;;;;;;;16.70;61.20;;;;;;20967245;28;19923;-80
2022/06/02 05:08:35;;;;;;;;;;;16.70;61.20;;;;;;20977905;28;20260;-77
2022/06/02 05:18:54;;;;;;;;;;;16.70;61.30;;;;;;20987757;28;19939;-79
2022/06/02 05:29:14;;;;;;;;;;;16.80;61.30;;;;;;20972481;28;20287;-78
2022/06/02 05:39:17;;;;;;;;;;;16.70;61.30;;;;;;20960271;28;20287;-80
2022/06/02 05:49:35;;;;;;;;;;;16.70;61.30;;;;;;20979040;28;20497;-78
2022/06/02 05:59:55;;;;;;;;;;;16.80;61.40;;;;;;20954356;28;19954;-79
2022/06/02 06:10:07;;;;;;;;;;;16.70;61.30;;;;;;20956202;28;19966;-78
2022/06/02 06:20:13;;;;;;;;;;;16.70;61.40;;;;;;20940825;28;19927;-79
2022/06/02 06:30:20;;;;;;;;;;;16.70;61.40;;;;;;20962345;28;20302;-79
2022/06/02 06:40:39;;;;;;;;;;;16.70;61.40;;;;;;20980406;28;19916;-82
2022/06/02 06:50:49;;;;;;;;;;;16.70;61.40;;;;;;20971568;28;19942;-81
2022/06/02 07:00:53;;;;;;;;;;;16.70;61.40;;;;;;20951971;28;19917;-81
2022/06/02 07:11:06;;;;;;;;;;;16.70;61.40;;;;;;20949025;28;19917;-82
2022/06/02 07:21:13;;;;;;;;;;;16.70;61.40;;;;;;21356305;22;19949;-81
2022/06/02 07:31:31;;;;;;;;;;;16.80;61.50;;;;;;20818300;28;21774;-83
2022/06/02 07:41:38;;;;;;;;;;;16.80;61.50;;;;;;20793421;28;19995;-82
2022/06/02 07:51:49;;;;;;;;;;;16.80;61.40;;;;;;20792445;28;19924;-84
2022/06/02 08:02:05;;;;;;;;;;;16.80;61.40;;;;;;20762683;28;20031;-81
2022/06/02 08:12:05;;;;;;;;;;;16.80;61.40;;;;;;20777735;28;19917;-81
2022/06/02 08:22:07;;;;;;;;;;;16.80;61.40;;;;;;20815203;28;20004;-81
2022/06/02 08:32:14;;;;;;;;;;;16.80;61.30;;;;;;20808531;28;19963;-79
2022/06/02 08:42:21;;;;;;;;;;;16.80;61.20;;;;;;20791835;28;20330;-78
2022/06/02 08:52:28;;;;;;;;;;;16.90;61.20;;;;;;20787303;28;19921;-80
2022/06/02 09:02:49;;;;;;;;;;;16.90;61.20;;;;;;20797233;28;19928;-78
2022/06/02 09:13:05;;;;;;;;;;;16.80;61.00;;;;;;20813870;28;19954;-79
2022/06/02 09:23:10;;;;;;;;;;;16.90;61.00;;;;;;20782940;28;19991;-78
2022/06/02 09:33:38;;;;;;;;;;;16.90;60.90;;;;;;20794349;28;19917;-78
2022/06/02 09:43:49;;;;;;;;;;;16.90;60.80;;;;;;20782877;28;20037;-77
2022/06/02 09:53:53;;;;;;;;;;;16.90;60.70;;;;;;20770388;28;19980;-77
2022/06/02 10:04:13;;;;;;;;;;;16.90;60.60;;;;;;20761525;28;19924;-77
2022/06/02 10:14:19;;;;;;;;;;;16.90;60.50;;;;;;20796821;28;19917;-78
2022/06/02 10:24:27;;;;;;;;;;;16.90;60.30;;;;;;20799762;28;19925;-76
2022/06/02 10:34:27;;;;;;;;;;;16.90;60.10;;;;;;20774533;28;19917;-77
2022/06/02 10:44:36;;;;;;;;;;;16.90;60.00;;;;;;20787280;28;20382;-74
2022/06/02 10:55:01;;;;;;;;;;;16.90;59.60;;;;;;20807771;28;20348;-73
2022/06/02 11:05:19;;;;;;;;;;;16.90;59.30;;;;;;20801933;28;19991;-80
2022/06/02 11:15:38;;;;;;;;;;;16.90;59.00;;;;;;20798489;28;19917;-80
2022/06/02 11:26:10;;;;;;;;;;;16.90;58.70;;;;;;20731923;28;20292;-81
2022/06/02 11:36:30;;;;;;;;;;;16.90;58.50;;;;;;20793813;28;19913;-78
2022/06/02 11:46:33;;;;;;;;;;;16.90;58.50;;;;;;20825493;28;20386;-77
2022/06/02 11:56:56;;;;;;;;;;;16.90;58.30;;;;;;20822330;28;19971;-80
2022/06/02 12:07:15;;;;;;;;;;;17.00;58.30;;;;;;20842043;28;19921;-77
2022/06/02 12:17:34;;;;;;;;;;;17.00;58.30;;;;;;20764618;28;19924;-76
2022/06/02 12:27:54;;;;;;;;;;;17.00;58.00;;;;;;20798038;28;19956;-77
2022/06/02 12:38:01;;;;;;;;;;;17.00;58.00;;;;;;20766864;28;19989;-76
2022/06/02 12:48:20;;;;;;;;;;;17.00;58.10;;;;;;20841760;28;20323;-76
2022/06/02 12:58:32;;;;;;;;;;;17.00;58.20;;;;;;20817637;28;19957;-78
2022/06/02 13:08:41;;;;;;;;;;;17.10;58.20;;;;;;20762664;28;19927;-74
2022/06/02 13:18:54;;;;;;;;;;;17.20;58.30;;;;;;20778172;28;19967;-73
2022/06/02 13:29:14;;;;;;;;;;;17.20;58.30;;;;;;20807891;28;20464;-72
2022/06/02 13:39:26;;;;;;;;;;;17.20;58.40;;;;;;20774072;28;20326;-72
2022/06/02 13:49:43;;;;;;;;;;;17.30;58.40;;;;;;20838788;28;19948;-74
2022/06/02 13:59:47;;;;;;;;;;;17.30;58.30;;;;;;20816437;28;20330;-74
2022/06/02 14:09:50;;;;;;;;;;;17.40;58.10;;;;;;20815221;28;19983;-81
2022/06/02 14:20:11;;;;;;;;;;;17.50;58.10;;;;;;20827259;28;20386;-80
2022/06/02 14:30:13;;;;;;;;;;;17.50;58.20;;;;;;20782577;28;20004;-78
2022/06/02 14:40:20;;;;;;;;;;;17.50;58.30;;;;;;20790168;28;19924;-78
2022/06/02 14:50:31;;;;;;;;;;;17.50;58.30;;;;;;20797734;28;20634;-77
2022/06/02 15:00:49;;;;;;;;;;;17.50;58.40;;;;;;20769721;28;20008;-77
2022/06/02 15:11:01;;;;;;;;;;;17.60;58.50;;;;;;20772730;28;20379;-76
2022/06/02 15:21:18;;;;;;;;;;;17.60;58.40;;;;;;20775782;28;19933;-75
2022/06/02 15:31:32;;;;;;;;;;;17.60;58.30;;;;;;20809349;28;19928;-74
2022/06/02 15:41:36;;;;;;;;;;;17.70;58.40;;;;;;20815537;28;20272;-76
2022/06/02 15:51:39;;;;;;;;;;;17.80;58.10;;;;;;20791811;28;20007;-76
2022/06/02 16:01:48;;;;;;;;;;;18.00;57.90;;;;;;20793580;28;19928;-76
2022/06/02 16:12:08;;;;;;;;;;;18.20;57.60;;;;;;20797884;28;19928;-79
2022/06/02 16:22:16;;;;;;;;;;;18.30;57.60;;;;;;20787327;28;19928;-80
2022/06/02 16:32:17;;;;;;;;;;;18.40;57.60;;;;;;20796223;28;20330;-80
2022/06/02 16:42:32;;;;;;;;;;;18.50;57.90;;;;;;20814667;28;20011;-79
2022/06/02 16:52:40;;;;;;;;;;;18.50;58.10;;;;;;20805252;28;19959;-75
2022/06/02 17:02:49;;;;;;;;;;;18.40;58.10;;;;;;20769087;28;19956;-79
2022/06/02 17:12:49;;;;;;;;;;;18.40;58.20;;;;;;20790054;28;19952;-74
2022/06/02 17:23:08;;;;;;;;;;;18.30;58.20;;;;;;20796707;28;19926;-78
2022/06/02 17:33:10;;;;;;;;;;;18.40;58.10;;;;;;20785870;28;19983;-75
2022/06/02 17:43:21;;;;;;;;;;;18.40;57.90;;;;;;20809991;28;19924;-74
2022/06/02 17:53:40;;;;;;;;;;;18.60;57.90;;;;;;20801804;28;19932;-74
2022/06/02 18:03:50;;;;;;;;;;;18.60;58.00;;;;;;20827125;28;19917;-78
2022/06/02 18:14:10;;;;;;;;;;;18.60;58.00;;;;;;20823376;28;19924;-75
2022/06/02 18:24:30;;;;;;;;;;;18.50;58.10;;;;;;20832465;28;19980;-75
2022/06/02 18:34:49;;;;;;;;;;;18.40;58.90;;;;;;20791961;28;19919;-75
2022/06/02 18:44:50;;;;;;;;;;;18.30;58.40;;;;;;20798862;28;19960;-76
2022/06/02 18:55:09;;;;;;;;;;;18.30;58.60;;;;;;20792671;28;19989;-76
2022/06/02 19:05:19;;;;;;;;;;;18.20;58.70;;;;;;20780264;28;20441;-75
2022/06/02 19:15:29;;;;;;;;;;;18.10;58.80;;;;;;20773840;28;19921;-75
2022/06/02 19:25:35;;;;;;;;;;;18.10;59.00;;;;;;20821716;28;19928;-79
2022/06/02 19:35:37;;;;;;;;;;;18.10;59.10;;;;;;20782402;28;20009;-76
2022/06/02 19:45:42;;;;;;;;;;;18.10;59.20;;;;;;20779695;28;19943;-74
2022/06/02 19:56:01;;;;;;;;;;;18.00;59.20;;;;;;20766217;28;19921;-73
2022/06/02 20:06:02;;;;;;;;;;;18.00;59.30;;;;;;20804895;28;19921;-73
2022/06/02 20:16:20;;;;;;;;;;;17.90;59.40;;;;;;20780560;28;19936;-74
2022/06/02 20:26:34;;;;;;;;;;;17.90;59.50;;;;;;20797558;28;20379;-74
2022/06/02 20:36:55;;;;;;;;;;;17.90;59.60;;;;;;20832464;28;19921;-75
2022/06/02 20:46:55;;;;;;;;;;;17.90;59.70;;;;;;20810155;28;19963;-74
2022/06/02 20:57:00;;;;;;;;;;;17.80;59.70;;;;;;20792562;28;19917;-76
2022/06/02 21:07:19;;;;;;;;;;;17.80;59.80;;;;;;20783617;28;19940;-74
2022/06/02 21:17:53;;;;;;;;;;;17.80;59.80;;;;;;20794570;28;19921;-75
2022/06/02 21:28:02;;;;;;;;;;;17.80;59.90;;;;;;20787325;28;20007;-74
2022/06/02 21:38:02;;;;;;;;;;;17.80;60.00;;;;;;20803404;28;19913;-74
2022/06/02 21:48:19;;;;;;;;;;;17.80;60.00;;;;;;20789607;28;19931;-77
2022/06/02 21:58:39;;;;;;;;;;;17.70;60.00;;;;;;20777300;28;19974;-75
2022/06/02 22:08:42;;;;;;;;;;;17.70;60.00;;;;;;20808354;28;20310;-75
2022/06/02 22:18:54;;;;;;;;;;;17.70;60.00;;;;;;20779907;28;20371;-75
2022/06/02 22:29:06;;;;;;;;;;;17.70;60.00;;;;;;20792793;28;20367;-75
2022/06/02 22:39:25;;;;;;;;;;;17.70;60.00;;;;;;20809656;28;19943;-75
2022/06/02 22:49:26;;;;;;;;;;;17.60;60.00;;;;;;20784641;28;19917;-75
2022/06/02 22:59:43;;;;;;;;;;;17.60;60.00;;;;;;20782678;28;19923;-75
2022/06/02 23:10:01;;;;;;;;;;;17.60;60.00;;;;;;20784297;28;19917;-76
2022/06/02 23:20:15;;;;;;;;;;;17.60;60.00;;;;;;20773127;28;19917;-74
2022/06/02 23:30:39;;;;;;;;;;;17.60;60.00;;;;;;20788940;28;19921;-74
2022/06/02 23:40:48;;;;;;;;;;;17.60;59.90;;;;;;20779385;28;20561;-74
2022/06/02 23:50:54;;;;;;;;;;;17.60;60.60;;;;;;20798036;28;19943;-76
